sensor_id;sensor_type;location;lat;lon;timestamp;temperature;humidity
530;DHT22;251;48.704;9.210;2022-11-28T00:02:25;4.10;78.20
530;DHT22;251;48.704;9.210;2022-11-28T00:04:52;4.10;78.20
530;DHT22;251;48.704;9.210;2022-11-28T00:07:18;4.00;78.10
530;DHT22;251;48.704;9.210;2022-11-28T00:09:45;4.00;77.80
530;DHT22;251;48.704;9.210;2022-11-28T00:12:12;4.00;77.90
530;DHT22;251;48.704;9.210;2022-11-28T00:14:40;4.10;77.70
530;DHT22;251;48.704;9.210;2022-11-28T00:17:07;3.90;77.90
530;DHT22;251;48.704;9.210;2022-11-28T00:19:34;4.00;78.20
530;DHT22;251;48.704;9.210;2022-11-28T00:22:01;4.10;78.10
530;DHT22;251;48.704;9.210;2022-11-28T00:24:27;3.90;78.30
530;DHT22;251;48.704;9.210;2022-11-28T00:26:54;4.10;78.60
530;DHT22;251;48.704;9.210;2022-11-28T00:29:21;4.20;78.60
530;DHT22;251;48.704;9.210;2022-11-28T00:31:49;4.00;78.40
530;DHT22;251;48.704;9.210;2022-11-28T00:34:16;3.80;77.40
530;DHT22;251;48.704;9.210;2022-11-28T00:36:44;3.90;77.70
530;DHT22;251;48.704;9.210;2022-11-28T00:39:12;3.90;77.50
530;DHT22;251;48.704;9.210;2022-11-28T00:41:39;3.90;77.10
530;DHT22;251;48.704;9.210;2022-11-28T00:44:06;4.00;78.20
530;DHT22;251;48.704;9.210;2022-11-28T00:46:33;4.20;78.70
530;DHT22;251;48.704;9.210;2022-11-28T00:49:01;3.90;78.90
530;DHT22;251;48.704;9.210;2022-11-28T00:51:30;3.80;78.00
530;DHT22;251;48.704;9.210;2022-11-28T00:53:58;3.90;78.00
530;DHT22;251;48.704;9.210;2022-11-28T00:56:29;4.00;78.20
530;DHT22;251;48.704;9.210;2022-11-28T00:58:56;3.70;77.50
530;DHT22;251;48.704;9.210;2022-11-28T01:01:26;3.90;77.70
530;DHT22;251;48.704;9.210;2022-11-28T01:03:54;3.90;77.70
530;DHT22;251;48.704;9.210;2022-11-28T01:06:25;3.90;78.30
530;DHT22;251;48.704;9.210;2022-11-28T01:08:52;3.90;78.20
530;DHT22;251;48.704;9.210;2022-11-28T01:11:19;3.90;78.50
530;DHT22;251;48.704;9.210;2022-11-28T01:13:47;4.20;78.50
530;DHT22;251;48.704;9.210;2022-11-28T01:16:14;4.10;78.50
530;DHT22;251;48.704;9.210;2022-11-28T01:18:41;4.10;78.80
530;DHT22;251;48.704;9.210;2022-11-28T01:21:08;4.20;78.70
530;DHT22;251;48.704;9.210;2022-11-28T01:23:36;4.20;78.50
530;DHT22;251;48.704;9.210;2022-11-28T01:26:05;4.10;78.50
530;DHT22;251;48.704;9.210;2022-11-28T01:28:33;4.10;78.60
530;DHT22;251;48.704;9.210;2022-11-28T01:31:03;4.10;78.50
530;DHT22;251;48.704;9.210;2022-11-28T01:33:30;4.10;78.50
530;DHT22;251;48.704;9.210;2022-11-28T01:35:58;4.20;78.50
530;DHT22;251;48.704;9.210;2022-11-28T01:38:25;4.10;78.10
530;DHT22;251;48.704;9.210;2022-11-28T01:40:54;4.10;78.10
530;DHT22;251;48.704;9.210;2022-11-28T01:43:23;4.10;78.60
530;DHT22;251;48.704;9.210;2022-11-28T01:45:50;4.10;78.30
530;DHT22;251;48.704;9.210;2022-11-28T01:48:19;3.90;78.10
530;DHT22;251;48.704;9.210;2022-11-28T01:50:49;4.10;78.20
530;DHT22;251;48.704;9.210;2022-11-28T01:53:18;4.00;78.70
530;DHT22;251;48.704;9.210;2022-11-28T01:55:51;4.00;78.70
530;DHT22;251;48.704;9.210;2022-11-28T01:58:21;3.90;78.40
530;DHT22;251;48.704;9.210;2022-11-28T02:00:49;3.70;78.00
530;DHT22;251;48.704;9.210;2022-11-28T02:03:19;3.80;78.30
530;DHT22;251;48.704;9.210;2022-11-28T02:05:49;3.70;78.40
530;DHT22;251;48.704;9.210;2022-11-28T02:08:16;3.90;78.40
530;DHT22;251;48.704;9.210;2022-11-28T02:10:53;3.70;78.40
530;DHT22;251;48.704;9.210;2022-11-28T02:13:32;3.90;78.80
530;DHT22;251;48.704;9.210;2022-11-28T02:16:14;4.00;79.30
530;DHT22;251;48.704;9.210;2022-11-28T02:18:54;3.90;79.40
530;DHT22;251;48.704;9.210;2022-11-28T02:21:42;4.00;79.30
530;DHT22;251;48.704;9.210;2022-11-28T02:24:35;3.90;79.90
530;DHT22;251;48.704;9.210;2022-11-28T02:27:19;3.90;79.60
530;DHT22;251;48.704;9.210;2022-11-28T02:30:10;3.80;79.40
530;DHT22;251;48.704;9.210;2022-11-28T02:32:54;3.70;79.60
530;DHT22;251;48.704;9.210;2022-11-28T02:35:26;3.80;79.60
530;DHT22;251;48.704;9.210;2022-11-28T02:38:03;3.70;79.60
530;DHT22;251;48.704;9.210;2022-11-28T02:40:37;3.90;80.60
530;DHT22;251;48.704;9.210;2022-11-28T02:43:10;3.40;80.50
530;DHT22;251;48.704;9.210;2022-11-28T02:45:46;3.90;81.30
530;DHT22;251;48.704;9.210;2022-11-28T02:48:23;3.70;81.00
530;DHT22;251;48.704;9.210;2022-11-28T02:50:56;3.80;81.20
530;DHT22;251;48.704;9.210;2022-11-28T02:53:26;3.70;80.70
530;DHT22;251;48.704;9.210;2022-11-28T02:55:57;3.90;81.40
530;DHT22;251;48.704;9.210;2022-11-28T02:58:24;3.90;81.10
530;DHT22;251;48.704;9.210;2022-11-28T03:00:52;3.70;81.30
530;DHT22;251;48.704;9.210;2022-11-28T03:03:35;3.80;81.80
530;DHT22;251;48.704;9.210;2022-11-28T03:06:10;3.60;81.90
530;DHT22;251;48.704;9.210;2022-11-28T03:08:51;3.50;82.00
530;DHT22;251;48.704;9.210;2022-11-28T03:11:27;3.50;82.20
530;DHT22;251;48.704;9.210;2022-11-28T03:14:05;3.60;82.80
530;DHT22;251;48.704;9.210;2022-11-28T03:16:37;3.50;82.90
530;DHT22;251;48.704;9.210;2022-11-28T03:19:11;3.90;84.20
530;DHT22;251;48.704;9.210;2022-11-28T03:21:44;3.90;84.00
530;DHT22;251;48.704;9.210;2022-11-28T03:24:16;3.90;83.50
530;DHT22;251;48.704;9.210;2022-11-28T03:26:52;3.90;83.10
530;DHT22;251;48.704;9.210;2022-11-28T03:29:27;3.80;83.20
530;DHT22;251;48.704;9.210;2022-11-28T03:32:01;3.90;83.40
530;DHT22;251;48.704;9.210;2022-11-28T03:34:32;3.80;83.20
530;DHT22;251;48.704;9.210;2022-11-28T03:37:03;3.90;83.90
530;DHT22;251;48.704;9.210;2022-11-28T03:39:34;3.90;83.90
530;DHT22;251;48.704;9.210;2022-11-28T03:42:04;3.90;83.30
530;DHT22;251;48.704;9.210;2022-11-28T03:44:37;3.60;83.40
530;DHT22;251;48.704;9.210;2022-11-28T03:47:06;3.70;83.70
530;DHT22;251;48.704;9.210;2022-11-28T03:49:37;3.90;84.30
530;DHT22;251;48.704;9.210;2022-11-28T03:52:07;3.90;84.90
530;DHT22;251;48.704;9.210;2022-11-28T03:54:41;3.80;84.60
530;DHT22;251;48.704;9.210;2022-11-28T03:57:11;3.80;84.40
530;DHT22;251;48.704;9.210;2022-11-28T03:59:42;3.70;84.60
530;DHT22;251;48.704;9.210;2022-11-28T04:02:14;3.80;84.30
530;DHT22;251;48.704;9.210;2022-11-28T04:04:51;3.60;83.90
530;DHT22;251;48.704;9.210;2022-11-28T04:07:24;3.60;84.30
530;DHT22;251;48.704;9.210;2022-11-28T04:09:58;3.60;84.20
530;DHT22;251;48.704;9.210;2022-11-28T04:12:33;3.70;84.30
530;DHT22;251;48.704;9.210;2022-11-28T04:15:07;3.60;83.90
530;DHT22;251;48.704;9.210;2022-11-28T04:17:38;3.70;84.10
530;DHT22;251;48.704;9.210;2022-11-28T04:20:12;3.60;84.10
530;DHT22;251;48.704;9.210;2022-11-28T04:22:44;3.70;84.10
530;DHT22;251;48.704;9.210;2022-11-28T04:25:14;3.60;83.90
530;DHT22;251;48.704;9.210;2022-11-28T04:27:46;3.50;83.20
530;DHT22;251;48.704;9.210;2022-11-28T04:30:15;3.60;84.20
530;DHT22;251;48.704;9.210;2022-11-28T04:32:46;3.70;84.70
530;DHT22;251;48.704;9.210;2022-11-28T04:35:19;3.60;83.80
530;DHT22;251;48.704;9.210;2022-11-28T04:37:49;3.50;83.80
530;DHT22;251;48.704;9.210;2022-11-28T04:40:18;3.40;84.00
530;DHT22;251;48.704;9.210;2022-11-28T04:42:50;3.60;84.10
530;DHT22;251;48.704;9.210;2022-11-28T04:45:21;3.70;84.00
530;DHT22;251;48.704;9.210;2022-11-28T04:47:50;3.60;83.80
530;DHT22;251;48.704;9.210;2022-11-28T04:50:19;3.40;83.80
530;DHT22;251;48.704;9.210;2022-11-28T04:52:53;3.40;83.70
530;DHT22;251;48.704;9.210;2022-11-28T04:55:27;3.50;84.10
530;DHT22;251;48.704;9.210;2022-11-28T04:57:59;3.70;84.10
530;DHT22;251;48.704;9.210;2022-11-28T05:00:28;3.50;83.60
530;DHT22;251;48.704;9.210;2022-11-28T05:02:58;3.60;83.60
530;DHT22;251;48.704;9.210;2022-11-28T05:05:27;3.60;83.90
530;DHT22;251;48.704;9.210;2022-11-28T05:07:56;3.60;84.20
530;DHT22;251;48.704;9.210;2022-11-28T05:10:23;3.60;84.50
530;DHT22;251;48.704;9.210;2022-11-28T05:12:51;3.60;84.10
530;DHT22;251;48.704;9.210;2022-11-28T05:15:18;3.70;83.90
530;DHT22;251;48.704;9.210;2022-11-28T05:17:44;3.60;84.00
530;DHT22;251;48.704;9.210;2022-11-28T05:20:12;3.40;84.00
530;DHT22;251;48.704;9.210;2022-11-28T05:22:41;3.60;83.90
530;DHT22;251;48.704;9.210;2022-11-28T05:25:08;3.40;83.80
530;DHT22;251;48.704;9.210;2022-11-28T05:27:35;3.60;84.00
530;DHT22;251;48.704;9.210;2022-11-28T05:30:02;3.50;84.30
530;DHT22;251;48.704;9.210;2022-11-28T05:32:31;3.60;84.60
530;DHT22;251;48.704;9.210;2022-11-28T05:34:58;3.40;84.20
530;DHT22;251;48.704;9.210;2022-11-28T05:37:25;3.40;84.20
530;DHT22;251;48.704;9.210;2022-11-28T05:39:53;3.60;84.20
530;DHT22;251;48.704;9.210;2022-11-28T05:42:20;3.60;84.30
530;DHT22;251;48.704;9.210;2022-11-28T05:44:47;3.40;84.20
530;DHT22;251;48.704;9.210;2022-11-28T05:47:15;3.60;84.30
530;DHT22;251;48.704;9.210;2022-11-28T05:49:42;3.50;84.50
530;DHT22;251;48.704;9.210;2022-11-28T05:52:08;3.60;84.90
530;DHT22;251;48.704;9.210;2022-11-28T05:54:35;3.60;85.00
530;DHT22;251;48.704;9.210;2022-11-28T05:57:03;3.60;85.00
530;DHT22;251;48.704;9.210;2022-11-28T05:59:31;3.50;85.00
530;DHT22;251;48.704;9.210;2022-11-28T06:01:58;3.60;84.80
530;DHT22;251;48.704;9.210;2022-11-28T06:04:26;3.40;84.80
530;DHT22;251;48.704;9.210;2022-11-28T06:06:53;3.60;85.00
530;DHT22;251;48.704;9.210;2022-11-28T06:09:19;3.60;85.10
530;DHT22;251;48.704;9.210;2022-11-28T06:11:46;3.60;85.20
530;DHT22;251;48.704;9.210;2022-11-28T06:14:15;3.40;85.00
530;DHT22;251;48.704;9.210;2022-11-28T06:16:41;3.40;85.00
530;DHT22;251;48.704;9.210;2022-11-28T06:19:11;3.40;84.60
530;DHT22;251;48.704;9.210;2022-11-28T06:21:38;3.50;83.90
530;DHT22;251;48.704;9.210;2022-11-28T06:24:06;3.70;85.00
530;DHT22;251;48.704;9.210;2022-11-28T06:26:42;3.30;85.00
530;DHT22;251;48.704;9.210;2022-11-28T06:29:12;3.40;85.70
530;DHT22;251;48.704;9.210;2022-11-28T06:31:49;3.60;86.50
530;DHT22;251;48.704;9.210;2022-11-28T06:34:29;3.70;86.30
530;DHT22;251;48.704;9.210;2022-11-28T06:36:58;3.60;86.50
530;DHT22;251;48.704;9.210;2022-11-28T06:39:26;3.60;86.70
530;DHT22;251;48.704;9.210;2022-11-28T06:41:59;3.60;86.50
530;DHT22;251;48.704;9.210;2022-11-28T06:44:33;3.70;86.20
530;DHT22;251;48.704;9.210;2022-11-28T06:47:08;3.70;86.30
530;DHT22;251;48.704;9.210;2022-11-28T06:49:42;3.60;86.10
530;DHT22;251;48.704;9.210;2022-11-28T06:52:19;3.60;86.00
530;DHT22;251;48.704;9.210;2022-11-28T06:55:01;3.60;85.90
530;DHT22;251;48.704;9.210;2022-11-28T06:57:31;3.60;85.90
530;DHT22;251;48.704;9.210;2022-11-28T07:00:01;3.60;86.80
530;DHT22;251;48.704;9.210;2022-11-28T07:02:50;3.60;86.20
530;DHT22;251;48.704;9.210;2022-11-28T07:05:35;3.50;86.00
530;DHT22;251;48.704;9.210;2022-11-28T07:08:14;3.60;85.80
530;DHT22;251;48.704;9.210;2022-11-28T07:10:41;3.60;85.60
530;DHT22;251;48.704;9.210;2022-11-28T07:16:58;3.60;86.00
530;DHT22;251;48.704;9.210;2022-11-28T07:23:13;3.60;85.60
530;DHT22;251;48.704;9.210;2022-11-28T07:26:21;3.60;85.60
530;DHT22;251;48.704;9.210;2022-11-28T07:29:31;3.60;85.60
530;DHT22;251;48.704;9.210;2022-11-28T07:32:18;3.70;85.80
530;DHT22;251;48.704;9.210;2022-11-28T07:42:30;3.60;86.50
530;DHT22;251;48.704;9.210;2022-11-28T07:45:56;3.60;85.80
530;DHT22;251;48.704;9.210;2022-11-28T07:52:03;3.30;85.80
530;DHT22;251;48.704;9.210;2022-11-28T07:54:53;3.60;85.80
530;DHT22;251;48.704;9.210;2022-11-28T07:57:53;3.60;85.70
530;DHT22;251;48.704;9.210;2022-11-28T08:01:07;3.60;86.20
530;DHT22;251;48.704;9.210;2022-11-28T08:04:33;3.40;86.10
530;DHT22;251;48.704;9.210;2022-11-28T08:07:38;3.50;86.40
530;DHT22;251;48.704;9.210;2022-11-28T08:10:40;3.60;86.40
530;DHT22;251;48.704;9.210;2022-11-28T08:13:28;3.60;86.80
530;DHT22;251;48.704;9.210;2022-11-28T08:16:33;3.50;86.90
530;DHT22;251;48.704;9.210;2022-11-28T08:19:04;3.70;87.00
530;DHT22;251;48.704;9.210;2022-11-28T08:21:32;3.60;87.20
530;DHT22;251;48.704;9.210;2022-11-28T08:24:04;3.80;87.30
530;DHT22;251;48.704;9.210;2022-11-28T08:26:40;3.40;87.40
530;DHT22;251;48.704;9.210;2022-11-28T08:29:12;3.80;87.90
530;DHT22;251;48.704;9.210;2022-11-28T08:31:39;3.80;87.10
530;DHT22;251;48.704;9.210;2022-11-28T08:34:10;3.70;87.90
530;DHT22;251;48.704;9.210;2022-11-28T08:36:44;3.80;88.30
530;DHT22;251;48.704;9.210;2022-11-28T08:39:15;3.80;89.00
530;DHT22;251;48.704;9.210;2022-11-28T08:41:44;3.90;88.60
530;DHT22;251;48.704;9.210;2022-11-28T08:44:17;3.90;89.10
530;DHT22;251;48.704;9.210;2022-11-28T08:46:44;3.70;89.20
530;DHT22;251;48.704;9.210;2022-11-28T08:49:14;3.90;89.20
530;DHT22;251;48.704;9.210;2022-11-28T08:51:41;3.80;88.60
530;DHT22;251;48.704;9.210;2022-11-28T08:54:11;4.00;89.10
530;DHT22;251;48.704;9.210;2022-11-28T08:56:38;4.10;88.80
530;DHT22;251;48.704;9.210;2022-11-28T08:59:06;4.10;88.20
530;DHT22;251;48.704;9.210;2022-11-28T09:01:39;4.20;87.70
530;DHT22;251;48.704;9.210;2022-11-28T09:04:06;4.10;87.10
530;DHT22;251;48.704;9.210;2022-11-28T09:06:34;4.10;86.70
530;DHT22;251;48.704;9.210;2022-11-28T09:09:04;4.10;86.80
530;DHT22;251;48.704;9.210;2022-11-28T09:11:38;4.00;87.00
530;DHT22;251;48.704;9.210;2022-11-28T09:14:13;4.10;86.90
530;DHT22;251;48.704;9.210;2022-11-28T09:16:42;4.20;87.20
530;DHT22;251;48.704;9.210;2022-11-28T09:19:10;4.40;87.50
530;DHT22;251;48.704;9.210;2022-11-28T09:21:38;4.30;87.50
530;DHT22;251;48.704;9.210;2022-11-28T09:24:07;4.50;87.60
530;DHT22;251;48.704;9.210;2022-11-28T09:26:41;4.50;87.60
530;DHT22;251;48.704;9.210;2022-11-28T09:29:10;4.40;87.40
530;DHT22;251;48.704;9.210;2022-11-28T09:31:38;4.40;87.50
530;DHT22;251;48.704;9.210;2022-11-28T09:34:20;4.30;87.70
530;DHT22;251;48.704;9.210;2022-11-28T09:37:10;4.40;87.60
530;DHT22;251;48.704;9.210;2022-11-28T09:39:37;4.30;87.10
530;DHT22;251;48.704;9.210;2022-11-28T09:42:16;4.70;87.20
530;DHT22;251;48.704;9.210;2022-11-28T09:44:51;4.90;87.70
530;DHT22;251;48.704;9.210;2022-11-28T09:47:27;4.70;86.90
530;DHT22;251;48.704;9.210;2022-11-28T09:50:07;4.70;86.80
530;DHT22;251;48.704;9.210;2022-11-28T09:52:48;4.60;86.70
530;DHT22;251;48.704;9.210;2022-11-28T09:55:29;4.80;86.80
530;DHT22;251;48.704;9.210;2022-11-28T09:58:01;4.70;86.50
530;DHT22;251;48.704;9.210;2022-11-28T10:00:37;4.70;86.00
530;DHT22;251;48.704;9.210;2022-11-28T10:03:27;4.70;85.30
530;DHT22;251;48.704;9.210;2022-11-28T10:06:12;4.60;84.60
530;DHT22;251;48.704;9.210;2022-11-28T10:09:21;4.80;84.50
530;DHT22;251;48.704;9.210;2022-11-28T10:12:05;4.60;84.10
530;DHT22;251;48.704;9.210;2022-11-28T10:14:56;4.70;84.50
530;DHT22;251;48.704;9.210;2022-11-28T10:17:36;4.80;85.00
530;DHT22;251;48.704;9.210;2022-11-28T10:20:16;4.80;84.50
530;DHT22;251;48.704;9.210;2022-11-28T10:22:51;5.00;84.60
530;DHT22;251;48.704;9.210;2022-11-28T10:25:29;4.90;84.50
530;DHT22;251;48.704;9.210;2022-11-28T10:28:02;5.00;84.60
530;DHT22;251;48.704;9.210;2022-11-28T10:30:32;5.20;84.90
530;DHT22;251;48.704;9.210;2022-11-28T10:33:21;5.00;85.20
530;DHT22;251;48.704;9.210;2022-11-28T10:35:55;5.00;84.40
530;DHT22;251;48.704;9.210;2022-11-28T10:38:28;5.00;83.70
530;DHT22;251;48.704;9.210;2022-11-28T10:40:59;5.00;83.60
530;DHT22;251;48.704;9.210;2022-11-28T10:43:39;5.20;83.50
530;DHT22;251;48.704;9.210;2022-11-28T10:46:30;5.20;83.50
530;DHT22;251;48.704;9.210;2022-11-28T10:49:20;5.00;83.60
530;DHT22;251;48.704;9.210;2022-11-28T10:52:06;5.40;83.70
530;DHT22;251;48.704;9.210;2022-11-28T10:54:54;5.30;84.10
530;DHT22;251;48.704;9.210;2022-11-28T10:57:33;5.30;82.60
530;DHT22;251;48.704;9.210;2022-11-28T11:00:09;5.30;82.20
530;DHT22;251;48.704;9.210;2022-11-28T11:02:43;5.30;81.60
530;DHT22;251;48.704;9.210;2022-11-28T11:05:36;5.60;80.00
530;DHT22;251;48.704;9.210;2022-11-28T11:08:24;5.50;80.20
530;DHT22;251;48.704;9.210;2022-11-28T11:11:03;5.40;80.80
530;DHT22;251;48.704;9.210;2022-11-28T11:13:58;5.40;80.90
530;DHT22;251;48.704;9.210;2022-11-28T11:16:49;5.30;80.80
530;DHT22;251;48.704;9.210;2022-11-28T11:19:25;5.30;80.00
530;DHT22;251;48.704;9.210;2022-11-28T11:22:00;5.60;80.70
530;DHT22;251;48.704;9.210;2022-11-28T11:24:34;5.80;82.10
530;DHT22;251;48.704;9.210;2022-11-28T11:27:06;5.50;82.90
530;DHT22;251;48.704;9.210;2022-11-28T11:29:41;5.40;83.00
530;DHT22;251;48.704;9.210;2022-11-28T11:32:22;5.60;83.00
530;DHT22;251;48.704;9.210;2022-11-28T11:34:52;5.50;82.80
530;DHT22;251;48.704;9.210;2022-11-28T11:37:34;5.60;82.40
530;DHT22;251;48.704;9.210;2022-11-28T11:40:24;5.60;83.00
530;DHT22;251;48.704;9.210;2022-11-28T11:42:59;5.60;83.10
530;DHT22;251;48.704;9.210;2022-11-28T11:45:29;5.60;82.70
530;DHT22;251;48.704;9.210;2022-11-28T11:48:03;5.80;82.90
530;DHT22;251;48.704;9.210;2022-11-28T11:50:35;5.60;82.20
530;DHT22;251;48.704;9.210;2022-11-28T11:53:13;5.60;81.80
530;DHT22;251;48.704;9.210;2022-11-28T11:55:46;5.70;81.70
530;DHT22;251;48.704;9.210;2022-11-28T11:58:23;6.10;82.00
530;DHT22;251;48.704;9.210;2022-11-28T12:00:56;5.90;82.40
530;DHT22;251;48.704;9.210;2022-11-28T12:03:35;5.70;81.40
530;DHT22;251;48.704;9.210;2022-11-28T12:06:16;5.90;81.70
530;DHT22;251;48.704;9.210;2022-11-28T12:09:06;5.90;82.30
530;DHT22;251;48.704;9.210;2022-11-28T12:11:38;5.60;82.80
530;DHT22;251;48.704;9.210;2022-11-28T12:14:26;5.80;83.40
530;DHT22;251;48.704;9.210;2022-11-28T12:20:21;6.10;83.70
530;DHT22;251;48.704;9.210;2022-11-28T12:22:59;6.10;84.80
530;DHT22;251;48.704;9.210;2022-11-28T12:25:36;6.10;84.90
530;DHT22;251;48.704;9.210;2022-11-28T12:28:13;6.10;84.00
530;DHT22;251;48.704;9.210;2022-11-28T12:30:56;6.20;85.60
530;DHT22;251;48.704;9.210;2022-11-28T12:33:36;6.10;87.70
530;DHT22;251;48.704;9.210;2022-11-28T12:36:13;6.20;88.00
530;DHT22;251;48.704;9.210;2022-11-28T12:39:01;6.00;87.80
530;DHT22;251;48.704;9.210;2022-11-28T12:42:04;6.30;88.90
530;DHT22;251;48.704;9.210;2022-11-28T12:44:53;6.10;89.80
530;DHT22;251;48.704;9.210;2022-11-28T12:47:33;6.50;90.90
530;DHT22;251;48.704;9.210;2022-11-28T12:50:14;6.40;90.90
530;DHT22;251;48.704;9.210;2022-11-28T12:52:54;6.40;90.50
530;DHT22;251;48.704;9.210;2022-11-28T12:55:35;6.50;89.70
530;DHT22;251;48.704;9.210;2022-11-28T12:58:11;6.50;88.60
530;DHT22;251;48.704;9.210;2022-11-28T13:00:49;6.40;87.10
530;DHT22;251;48.704;9.210;2022-11-28T13:03:37;6.40;87.40
530;DHT22;251;48.704;9.210;2022-11-28T13:06:20;6.50;89.30
530;DHT22;251;48.704;9.210;2022-11-28T13:09:02;6.50;90.20
530;DHT22;251;48.704;9.210;2022-11-28T13:11:44;6.50;90.70
530;DHT22;251;48.704;9.210;2022-11-28T13:14:25;6.50;91.20
530;DHT22;251;48.704;9.210;2022-11-28T13:17:01;6.50;91.10
530;DHT22;251;48.704;9.210;2022-11-28T13:19:42;6.50;91.40
530;DHT22;251;48.704;9.210;2022-11-28T13:22:16;6.50;92.00
530;DHT22;251;48.704;9.210;2022-11-28T13:24:57;6.40;92.80
530;DHT22;251;48.704;9.210;2022-11-28T13:27:40;6.90;93.00
530;DHT22;251;48.704;9.210;2022-11-28T13:30:23;6.70;92.80
530;DHT22;251;48.704;9.210;2022-11-28T13:33:23;6.60;92.90
530;DHT22;251;48.704;9.210;2022-11-28T13:36:00;6.80;92.70
530;DHT22;251;48.704;9.210;2022-11-28T13:38:47;6.80;92.40
530;DHT22;251;48.704;9.210;2022-11-28T13:41:40;6.80;91.70
530;DHT22;251;48.704;9.210;2022-11-28T13:44:17;6.70;91.40
530;DHT22;251;48.704;9.210;2022-11-28T13:46:53;6.60;91.00
530;DHT22;251;48.704;9.210;2022-11-28T13:49:23;6.80;90.70
530;DHT22;251;48.704;9.210;2022-11-28T13:54:58;6.70;90.70
530;DHT22;251;48.704;9.210;2022-11-28T13:57:28;7.10;90.40
530;DHT22;251;48.704;9.210;2022-11-28T14:00:05;6.80;90.50
530;DHT22;251;48.704;9.210;2022-11-28T14:02:45;6.90;90.60
530;DHT22;251;48.704;9.210;2022-11-28T14:05:30;6.70;90.20
530;DHT22;251;48.704;9.210;2022-11-28T14:08:01;6.80;90.30
530;DHT22;251;48.704;9.210;2022-11-28T14:11:05;6.80;90.10
530;DHT22;251;48.704;9.210;2022-11-28T14:14:06;6.70;89.60
530;DHT22;251;48.704;9.210;2022-11-28T14:16:50;6.80;88.80
530;DHT22;251;48.704;9.210;2022-11-28T14:19:29;6.80;87.70
530;DHT22;251;48.704;9.210;2022-11-28T14:22:19;6.80;86.90
530;DHT22;251;48.704;9.210;2022-11-28T14:24:55;6.80;85.90
530;DHT22;251;48.704;9.210;2022-11-28T14:27:30;6.90;86.30
530;DHT22;251;48.704;9.210;2022-11-28T14:30:05;6.80;86.50
530;DHT22;251;48.704;9.210;2022-11-28T14:32:45;6.70;86.10
530;DHT22;251;48.704;9.210;2022-11-28T14:41:10;6.70;84.60
530;DHT22;251;48.704;9.210;2022-11-28T14:43:46;6.70;84.50
530;DHT22;251;48.704;9.210;2022-11-28T14:46:25;6.70;84.70
530;DHT22;251;48.704;9.210;2022-11-28T14:49:22;6.80;84.70
530;DHT22;251;48.704;9.210;2022-11-28T14:52:23;6.60;84.50
530;DHT22;251;48.704;9.210;2022-11-28T14:54:58;6.80;84.00
530;DHT22;251;48.704;9.210;2022-11-28T14:57:49;6.80;84.10
530;DHT22;251;48.704;9.210;2022-11-28T15:00:26;6.80;84.80
530;DHT22;251;48.704;9.210;2022-11-28T15:03:13;6.80;84.50
530;DHT22;251;48.704;9.210;2022-11-28T15:05:48;6.80;84.30
530;DHT22;251;48.704;9.210;2022-11-28T15:08:52;6.90;84.90
530;DHT22;251;48.704;9.210;2022-11-28T15:11:35;6.70;84.30
530;DHT22;251;48.704;9.210;2022-11-28T15:14:20;6.70;84.80
530;DHT22;251;48.704;9.210;2022-11-28T15:16:55;6.70;85.90
530;DHT22;251;48.704;9.210;2022-11-28T15:19:31;6.70;85.70
530;DHT22;251;48.704;9.210;2022-11-28T15:24:52;6.50;85.60
530;DHT22;251;48.704;9.210;2022-11-28T15:27:25;6.80;87.10
530;DHT22;251;48.704;9.210;2022-11-28T15:30:02;6.70;86.80
530;DHT22;251;48.704;9.210;2022-11-28T15:32:41;6.50;86.60
530;DHT22;251;48.704;9.210;2022-11-28T15:35:17;6.70;87.80
530;DHT22;251;48.704;9.210;2022-11-28T15:37:52;6.40;88.40
530;DHT22;251;48.704;9.210;2022-11-28T15:40:26;6.50;89.00
530;DHT22;251;48.704;9.210;2022-11-28T15:43:00;6.50;89.10
530;DHT22;251;48.704;9.210;2022-11-28T15:45:32;6.50;89.50
530;DHT22;251;48.704;9.210;2022-11-28T15:48:25;6.50;90.40
530;DHT22;251;48.704;9.210;2022-11-28T15:50:57;6.40;90.40
530;DHT22;251;48.704;9.210;2022-11-28T15:53:29;6.50;90.80
530;DHT22;251;48.704;9.210;2022-11-28T15:56:11;6.50;90.80
530;DHT22;251;48.704;9.210;2022-11-28T15:58:45;6.40;90.60
530;DHT22;251;48.704;9.210;2022-11-28T16:01:19;6.50;91.20
530;DHT22;251;48.704;9.210;2022-11-28T16:03:53;6.40;91.50
530;DHT22;251;48.704;9.210;2022-11-28T16:06:30;6.50;92.00
530;DHT22;251;48.704;9.210;2022-11-28T16:09:01;6.20;92.30
530;DHT22;251;48.704;9.210;2022-11-28T16:11:36;6.40;92.20
530;DHT22;251;48.704;9.210;2022-11-28T16:14:09;6.30;92.50
530;DHT22;251;48.704;9.210;2022-11-28T16:16:48;6.40;92.70
530;DHT22;251;48.704;9.210;2022-11-28T16:19:23;6.30;93.00
530;DHT22;251;48.704;9.210;2022-11-28T16:21:57;6.50;93.50
530;DHT22;251;48.704;9.210;2022-11-28T16:24:32;6.50;93.80
530;DHT22;251;48.704;9.210;2022-11-28T16:27:26;6.50;93.70
530;DHT22;251;48.704;9.210;2022-11-28T16:32:42;6.50;94.60
530;DHT22;251;48.704;9.210;2022-11-28T16:35:25;6.40;94.60
530;DHT22;251;48.704;9.210;2022-11-28T16:38:04;6.40;95.00
530;DHT22;251;48.704;9.210;2022-11-28T16:40:40;6.40;95.40
530;DHT22;251;48.704;9.210;2022-11-28T16:43:22;6.40;95.50
530;DHT22;251;48.704;9.210;2022-11-28T16:46:03;6.20;95.90
530;DHT22;251;48.704;9.210;2022-11-28T16:48:35;6.40;95.80
530;DHT22;251;48.704;9.210;2022-11-28T16:51:38;6.20;95.60
530;DHT22;251;48.704;9.210;2022-11-28T16:54:32;6.40;96.50
530;DHT22;251;48.704;9.210;2022-11-28T16:57:12;6.40;97.40
530;DHT22;251;48.704;9.210;2022-11-28T16:59:45;6.40;98.00
530;DHT22;251;48.704;9.210;2022-11-28T17:02:14;5.90;98.20
530;DHT22;251;48.704;9.210;2022-11-28T17:04:45;5.90;97.80
530;DHT22;251;48.704;9.210;2022-11-28T17:07:17;5.90;98.10
530;DHT22;251;48.704;9.210;2022-11-28T17:09:48;6.10;98.40
530;DHT22;251;48.704;9.210;2022-11-28T17:12:22;6.40;98.50
530;DHT22;251;48.704;9.210;2022-11-28T17:14:53;6.40;98.40
530;DHT22;251;48.704;9.210;2022-11-28T17:17:26;6.40;98.80
530;DHT22;251;48.704;9.210;2022-11-28T17:19:57;6.20;99.40
530;DHT22;251;48.704;9.210;2022-11-28T17:22:32;5.90;99.90
530;DHT22;251;48.704;9.210;2022-11-28T17:25:04;6.20;99.90
530;DHT22;251;48.704;9.210;2022-11-28T17:27:33;6.20;99.90
530;DHT22;251;48.704;9.210;2022-11-28T17:30:14;5.90;99.90
530;DHT22;251;48.704;9.210;2022-11-28T17:32:53;5.90;99.90
530;DHT22;251;48.704;9.210;2022-11-28T17:35:23;5.90;99.90
530;DHT22;251;48.704;9.210;2022-11-28T17:37:52;6.30;99.90
530;DHT22;251;48.704;9.210;2022-11-28T17:40:24;6.20;99.90
530;DHT22;251;48.704;9.210;2022-11-28T17:43:14;6.10;99.90
530;DHT22;251;48.704;9.210;2022-11-28T17:45:47;6.00;99.90
530;DHT22;251;48.704;9.210;2022-11-28T17:48:16;6.20;99.90
530;DHT22;251;48.704;9.210;2022-11-28T17:50:50;6.20;99.90
530;DHT22;251;48.704;9.210;2022-11-28T17:53:19;5.90;99.90
530;DHT22;251;48.704;9.210;2022-11-28T17:55:49;6.20;99.90
530;DHT22;251;48.704;9.210;2022-11-28T17:58:26;5.90;99.90
530;DHT22;251;48.704;9.210;2022-11-28T18:01:02;6.20;99.90
530;DHT22;251;48.704;9.210;2022-11-28T18:03:38;6.10;99.90
530;DHT22;251;48.704;9.210;2022-11-28T18:06:16;6.00;99.90
530;DHT22;251;48.704;9.210;2022-11-28T18:08:49;6.20;99.90
530;DHT22;251;48.704;9.210;2022-11-28T18:11:18;6.10;99.90
530;DHT22;251;48.704;9.210;2022-11-28T18:13:47;6.00;99.90
530;DHT22;251;48.704;9.210;2022-11-28T18:16:20;6.00;99.90
530;DHT22;251;48.704;9.210;2022-11-28T18:19:00;5.90;99.90
530;DHT22;251;48.704;9.210;2022-11-28T18:21:30;6.20;99.90
530;DHT22;251;48.704;9.210;2022-11-28T18:23:59;6.10;99.90
530;DHT22;251;48.704;9.210;2022-11-28T18:26:34;6.10;99.90